createdAt,value
2019-05-21T00:00:11.014Z,34.27
2019-05-21T00:02:40.684Z,34.83
2019-05-21T00:05:10.255Z,31.07
2019-05-21T00:07:40.203Z,35.40
2019-05-21T00:10:10.032Z,34.67
2019-05-21T00:12:39.399Z,36.07
2019-05-21T00:15:09.117Z,38.60
2019-05-21T00:17:38.500Z,35.67
2019-05-21T00:20:08.509Z,38.00
2019-05-21T00:22:37.922Z,37.37
2019-05-21T00:25:08.569Z,39.30
2019-05-21T00:27:37.972Z,35.53
2019-05-21T00:30:43.852Z,39.00
2019-05-21T00:33:49.581Z,36.23
2019-05-21T00:36:56.947Z,41.77
2019-05-21T00:40:02.562Z,44.70
2019-05-21T00:42:35.283Z,37.33
2019-05-21T00:45:09.811Z,42.40
2019-05-21T00:47:39.410Z,48.70
2019-05-21T00:50:09.624Z,40.63
2019-05-21T00:52:39.033Z,46.77
2019-05-21T00:55:08.640Z,44.60
2019-05-21T00:57:38.056Z,45.03
2019-05-21T01:00:07.847Z,40.77
2019-05-21T01:02:37.284Z,48.20
2019-05-21T01:05:06.862Z,50.37
2019-05-21T01:07:36.217Z,48.90
2019-05-21T01:10:06.921Z,44.13
2019-05-21T01:12:36.297Z,54.57
2019-05-21T01:15:08.987Z,48.17
2019-05-21T01:17:38.373Z,51.80
2019-05-21T01:20:07.995Z,47.53
2019-05-21T01:22:37.380Z,50.13
2019-05-21T01:25:07.203Z,46.27
2019-05-21T01:27:36.566Z,51.43
2019-05-21T01:30:07.000Z,49.33
2019-05-21T01:32:36.408Z,60.30
2019-05-21T01:35:16.667Z,47.63
2019-05-21T01:37:37.536Z,49.30
2019-05-21T01:40:07.025Z,49.37
2019-05-21T01:42:36.384Z,50.93
2019-05-21T01:45:06.994Z,43.47
2019-05-21T01:47:36.399Z,49.37
2019-05-21T01:50:06.727Z,57.30
2019-05-21T01:52:36.187Z,47.10
2019-05-21T01:55:06.407Z,50.20
2019-05-21T01:57:35.771Z,47.07
2019-05-21T02:00:06.961Z,53.70
2019-05-21T02:02:37.371Z,50.07
2019-05-21T02:05:07.099Z,53.30
2019-05-21T02:07:37.014Z,48.20
2019-05-21T02:10:07.716Z,46.97
2019-05-21T02:12:37.126Z,51.30
2019-05-21T02:15:07.525Z,49.43
2019-05-21T02:17:36.929Z,48.30
2019-05-21T02:20:06.490Z,45.03
2019-05-21T02:22:35.867Z,50.47
2019-05-21T02:25:07.363Z,52.87
2019-05-21T02:27:36.741Z,53.73
2019-05-21T02:30:11.504Z,48.37
2019-05-21T02:32:40.882Z,45.10
2019-05-21T02:35:10.595Z,49.33
2019-05-21T02:37:39.987Z,40.97
2019-05-21T02:40:09.678Z,43.13
2019-05-21T02:42:39.207Z,39.97
2019-05-21T02:45:09.251Z,34.30
2019-05-21T02:47:38.649Z,34.67
2019-05-21T02:50:08.828Z,34.97
2019-05-21T02:52:38.182Z,38.73
2019-05-21T02:55:08.315Z,37.53
2019-05-21T02:57:43.553Z,34.70
2019-05-21T03:00:26.839Z,35.03
2019-05-21T03:02:56.346Z,34.27
2019-05-21T03:05:25.799Z,33.10
2019-05-21T03:07:55.176Z,31.27
2019-05-21T03:10:24.574Z,32.63
2019-05-21T03:12:53.976Z,30.53
2019-05-21T03:15:23.349Z,31.17
2019-05-21T03:17:52.732Z,31.03
2019-05-21T03:20:22.666Z,28.43
2019-05-21T03:22:52.030Z,37.03
2019-05-21T06:59:48.087Z,35.50
2019-05-21T07:02:17.462Z,35.33
2019-05-21T07:04:46.825Z,34.33
2019-05-21T07:07:16.213Z,37.80
2019-05-21T07:09:45.575Z,33.53
2019-05-21T07:12:14.934Z,34.37
2019-05-21T07:14:44.341Z,37.33
2019-05-21T07:17:13.693Z,33.10
2019-05-21T07:19:43.056Z,30.97
2019-05-21T07:22:13.401Z,35.20
2019-05-21T07:24:43.025Z,30.83
2019-05-21T07:27:12.403Z,32.60
2019-05-21T07:29:41.787Z,30.37
2019-05-21T07:32:11.156Z,30.67
2019-05-21T07:34:40.562Z,34.33
2019-05-21T07:37:09.982Z,30.90
2019-05-21T07:39:39.359Z,29.97
2019-05-21T07:42:08.717Z,28.70
2019-05-21T07:44:38.069Z,30.90
2019-05-21T07:47:07.427Z,27.17
2019-05-21T07:49:36.821Z,32.00
2019-05-21T07:52:06.247Z,27.83
2019-05-21T07:54:35.633Z,27.13
2019-05-21T07:57:05.050Z,29.83
2019-05-21T07:59:34.480Z,31.43
2019-05-21T08:02:03.810Z,28.67
2019-05-21T08:04:33.190Z,27.77
2019-05-21T08:07:02.582Z,28.57
2019-05-21T08:09:32.004Z,25.40
2019-05-21T08:12:01.367Z,25.17
2019-05-21T08:14:31.788Z,25.53
2019-05-21T08:17:01.151Z,27.80
2019-05-21T08:19:31.297Z,25.60
2019-05-21T08:22:00.952Z,25.93
2019-05-21T08:24:30.303Z,25.07
2019-05-21T08:26:59.692Z,24.07
2019-05-21T08:29:29.118Z,25.73
2019-05-21T08:31:58.505Z,27.50
2019-05-21T08:34:27.865Z,25.23
2019-05-21T08:36:57.251Z,27.77
2019-05-21T08:39:29.174Z,25.57
2019-05-21T08:41:57.787Z,22.00
2019-05-21T08:44:27.112Z,25.83
2019-05-21T08:46:56.598Z,22.30
2019-05-21T08:49:26.010Z,23.20
2019-05-21T08:51:55.400Z,21.33
2019-05-21T08:54:42.977Z,21.77
2019-05-21T08:57:12.417Z,24.47
2019-05-21T08:59:41.813Z,22.57
2019-05-21T09:02:11.183Z,21.00
2019-05-21T09:04:46.263Z,22.47
2019-05-21T09:07:12.903Z,21.30
2019-05-21T09:09:49.793Z,22.70
2019-05-21T09:12:14.494Z,23.30
2019-05-21T09:14:43.890Z,23.70
2019-05-21T09:17:13.271Z,21.83
2019-05-21T09:19:42.678Z,21.77
2019-05-21T09:22:12.087Z,22.07
2019-05-21T09:24:41.534Z,23.77
2019-05-21T09:27:10.912Z,24.97
2019-05-21T09:29:40.277Z,23.87
2019-05-21T09:32:09.910Z,26.17
2019-05-21T09:34:48.703Z,24.27
2019-05-21T09:37:19.126Z,21.63
2019-05-21T09:39:41.499Z,21.60
2019-05-21T09:42:10.898Z,22.27
2019-05-21T09:44:40.261Z,24.57
2019-05-21T09:47:09.692Z,20.77
2019-05-21T09:49:39.048Z,21.50
2019-05-21T09:52:08.499Z,21.67
2019-05-21T09:54:38.976Z,23.00
2019-05-21T09:57:09.985Z,23.93
2019-05-21T09:59:46.854Z,24.80
2019-05-21T10:02:17.915Z,22.80
2019-05-21T10:04:47.298Z,24.23
2019-05-21T10:07:16.743Z,25.47
2019-05-21T10:09:46.150Z,24.53
2019-05-21T10:12:16.586Z,21.13
2019-05-21T10:14:45.976Z,21.30
2019-05-21T10:17:15.340Z,22.10
2019-05-21T10:19:44.697Z,22.67
2019-05-21T10:22:14.084Z,22.60
2019-05-21T10:24:43.451Z,21.23
2019-05-21T10:27:12.876Z,22.93
2019-05-21T10:29:42.224Z,20.70
2019-05-21T10:32:12.489Z,21.40
2019-05-21T10:34:41.841Z,21.50
2019-05-21T10:37:11.206Z,20.63
2019-05-21T10:39:40.589Z,20.13
2019-05-21T10:42:09.963Z,23.67
2019-05-21T10:44:39.367Z,23.40
2019-05-21T10:47:08.775Z,22.80
2019-05-21T10:49:38.189Z,23.23
2019-05-21T10:52:07.547Z,22.30
2019-05-21T10:54:37.032Z,23.17
2019-05-21T10:57:06.480Z,24.73
2019-05-21T10:59:35.839Z,26.30
2019-05-21T11:02:08.136Z,25.67
2019-05-21T11:04:39.197Z,23.97
2019-05-21T11:07:10.186Z,22.90
2019-05-21T11:09:39.560Z,27.57
2019-05-21T11:12:09.311Z,28.00
2019-05-21T11:14:38.655Z,26.30
2019-05-21T11:17:10.756Z,24.17
2019-05-21T11:19:40.219Z,28.63
2019-05-21T11:22:09.682Z,24.17
2019-05-21T11:24:39.055Z,25.37
2019-05-21T11:27:08.606Z,26.27
2019-05-21T11:29:37.961Z,27.70
2019-05-21T11:32:07.330Z,23.73
2019-05-21T11:34:36.726Z,26.70
2019-05-21T11:37:06.155Z,24.87
2019-05-21T11:39:35.551Z,24.70
2019-05-21T11:42:04.921Z,26.10
2019-05-21T11:44:34.340Z,30.40
2019-05-21T11:47:03.691Z,26.57
2019-05-21T11:49:33.063Z,29.40
2019-05-21T11:52:02.479Z,27.80
2019-05-21T11:54:32.826Z,28.67
2019-05-21T11:57:02.188Z,27.67
2019-05-21T11:59:31.576Z,26.93
2019-05-21T12:02:00.949Z,26.77
2019-05-21T12:04:30.325Z,28.90
2019-05-21T12:07:03.330Z,25.93
2019-05-21T12:09:30.767Z,25.77
2019-05-21T12:12:00.158Z,25.53
2019-05-21T12:14:29.526Z,26.20
2019-05-21T12:16:58.899Z,27.60
2019-05-21T12:19:28.269Z,24.63
2019-05-21T12:21:57.650Z,25.70
2019-05-21T12:24:27.681Z,23.50
2019-05-21T12:26:57.324Z,28.30
2019-05-21T12:29:26.687Z,26.73
2019-05-21T12:31:56.080Z,27.30
2019-05-21T12:34:25.436Z,24.50
2019-05-21T12:36:54.793Z,24.83
2019-05-21T12:39:24.177Z,24.20
2019-05-21T12:41:53.537Z,23.30
2019-05-21T12:44:22.894Z,21.83
2019-05-21T12:46:52.299Z,23.23
2019-05-21T12:49:21.745Z,22.83
2019-05-21T12:51:51.155Z,21.27
2019-05-21T12:54:20.543Z,20.43
2019-05-21T12:56:49.936Z,18.53
2019-05-21T12:59:20.372Z,19.57
2019-05-21T13:01:49.737Z,20.90
2019-05-21T13:04:19.287Z,21.43
2019-05-21T13:06:48.766Z,19.60
2019-05-21T13:09:31.456Z,22.63
2019-05-21T13:11:49.298Z,19.67
2019-05-21T13:14:19.183Z,18.80
2019-05-21T13:16:48.735Z,20.27
2019-05-21T13:19:33.365Z,19.97
2019-05-21T13:22:02.746Z,23.13
2019-05-21T13:24:32.103Z,20.97
2019-05-21T13:27:01.455Z,21.03
2019-05-21T13:29:30.868Z,21.13
2019-05-21T13:32:00.309Z,21.77
2019-05-21T13:34:29.686Z,22.83
2019-05-21T13:36:59.082Z,23.37
2019-05-21T13:39:28.489Z,23.50
2019-05-21T13:41:59.006Z,25.70
2019-05-21T13:44:28.393Z,24.93
2019-05-21T13:46:58.966Z,24.43
2019-05-21T13:49:28.324Z,23.10
2019-05-21T13:51:57.716Z,23.43
2019-05-21T13:54:27.174Z,24.17
2019-05-21T13:56:56.643Z,24.63
2019-05-21T13:59:26.026Z,23.90
2019-05-21T14:01:56.347Z,23.23
2019-05-21T14:04:25.882Z,23.50
2019-05-21T14:06:55.599Z,25.07
2019-05-21T14:09:25.213Z,28.23
2019-05-21T14:11:54.753Z,24.10
2019-05-21T14:14:24.173Z,23.70
2019-05-21T14:16:53.603Z,23.27
2019-05-21T14:19:23.135Z,23.27
2019-05-21T14:21:52.529Z,22.47
2019-05-21T14:24:21.913Z,24.00
2019-05-21T14:26:51.289Z,23.73
2019-05-21T14:29:20.677Z,22.40
2019-05-21T14:31:50.044Z,21.80
2019-05-21T14:34:19.448Z,20.87
2019-05-21T14:36:49.871Z,23.73
2019-05-21T14:39:19.366Z,23.50
2019-05-21T14:41:48.728Z,25.07
2019-05-21T14:44:18.083Z,23.97
2019-05-21T14:46:47.542Z,20.67
2019-05-21T14:49:16.920Z,20.97
2019-05-21T14:51:46.284Z,20.27
2019-05-21T14:54:26.317Z,19.00
2019-05-21T14:56:47.752Z,20.40
2019-05-21T14:59:17.522Z,19.83
2019-05-21T15:01:46.885Z,19.37
2019-05-21T15:04:16.394Z,19.50
2019-05-21T15:06:45.860Z,18.93
2019-05-21T15:09:16.222Z,21.03
2019-05-21T15:11:45.587Z,21.07
2019-05-21T15:14:15.963Z,19.77
2019-05-21T15:16:45.332Z,20.63
2019-05-21T15:19:14.879Z,20.63
2019-05-21T15:21:45.873Z,20.50
2019-05-21T15:24:15.497Z,20.93
2019-05-21T15:26:45.150Z,21.50
2019-05-21T15:29:14.532Z,24.37
2019-05-21T15:31:43.902Z,23.53
2019-05-21T15:34:13.264Z,23.50
2019-05-21T15:36:42.685Z,20.00
2019-05-21T15:39:12.034Z,21.13
2019-05-21T15:41:41.409Z,21.43
2019-05-21T15:44:10.783Z,21.57
2019-05-21T15:46:49.275Z,22.00
2019-05-21T15:49:11.271Z,21.10
2019-05-21T15:51:40.638Z,19.57
2019-05-21T15:54:10.018Z,20.93
2019-05-21T15:56:39.395Z,20.83
2019-05-21T15:59:08.861Z,19.00
2019-05-21T16:01:40.525Z,19.97
2019-05-21T16:04:09.354Z,21.17
2019-05-21T16:06:39.786Z,19.87
2019-05-21T16:09:09.668Z,20.70
2019-05-21T16:11:39.020Z,18.93
2019-05-21T16:14:08.429Z,20.87
2019-05-21T16:16:37.755Z,18.37
2019-05-21T16:19:07.135Z,18.43
2019-05-21T16:21:36.523Z,17.67
2019-05-21T16:24:05.881Z,17.60
2019-05-21T16:26:35.248Z,18.00
2019-05-21T16:29:05.607Z,17.47
2019-05-21T16:31:34.972Z,17.77
2019-05-21T16:34:04.671Z,19.53
2019-05-21T16:36:34.116Z,18.30
2019-05-21T16:39:04.998Z,18.47
2019-05-21T16:41:44.049Z,18.50
2019-05-21T16:44:05.821Z,17.13
2019-05-21T16:46:35.171Z,19.70
2019-05-21T16:49:04.531Z,20.20
2019-05-21T16:51:33.885Z,18.10
2019-05-21T16:54:03.291Z,17.50
2019-05-21T16:56:32.681Z,17.50
2019-05-21T16:59:02.072Z,18.73
2019-05-21T17:01:31.744Z,18.03
2019-05-21T17:04:01.116Z,18.60
2019-05-21T17:06:30.505Z,15.60
2019-05-21T17:08:59.935Z,17.47
2019-05-21T17:11:29.314Z,15.77
2019-05-21T17:13:58.722Z,14.90
2019-05-21T17:16:28.164Z,17.13
2019-05-21T17:18:57.528Z,17.33
2019-05-21T17:21:26.880Z,16.77
2019-05-21T17:23:56.262Z,16.10
2019-05-21T17:26:25.642Z,13.60
2019-05-21T17:28:55.081Z,14.03
2019-05-21T17:31:24.488Z,14.23
2019-05-21T17:33:53.856Z,14.27
2019-05-21T17:36:23.223Z,14.60
2019-05-21T17:38:52.646Z,14.37
2019-05-21T17:41:22.154Z,13.57
2019-05-21T17:43:51.513Z,13.17
2019-05-21T17:46:20.918Z,13.60
2019-05-21T17:48:50.355Z,14.80
2019-05-21T17:51:19.739Z,13.57
2019-05-21T17:53:49.192Z,13.40
2019-05-21T17:56:18.560Z,12.97
2019-05-21T17:58:48.084Z,13.50
2019-05-21T18:01:17.881Z,13.30
2019-05-21T18:03:47.717Z,12.27
2019-05-21T18:06:17.936Z,13.03
2019-05-21T18:08:47.814Z,12.97
2019-05-21T18:11:18.090Z,13.50
2019-05-21T18:13:48.236Z,12.10
2019-05-21T18:16:18.247Z,12.30
2019-05-21T18:18:48.107Z,12.97
2019-05-21T18:21:17.756Z,13.67
2019-05-21T18:23:47.272Z,12.70
2019-05-21T18:26:16.743Z,12.40
2019-05-21T18:28:46.121Z,12.40
2019-05-21T18:31:15.816Z,14.63
2019-05-21T18:33:45.269Z,13.57
2019-05-21T18:36:14.633Z,13.20
2019-05-21T18:38:44.129Z,13.33
2019-05-21T18:41:13.490Z,12.87
2019-05-21T18:43:42.895Z,12.83
2019-05-21T18:46:12.263Z,13.27
2019-05-21T18:48:41.619Z,12.50
2019-05-21T18:51:11.059Z,12.60
2019-05-21T18:53:40.431Z,12.30
2019-05-21T18:56:09.786Z,12.57
2019-05-21T18:58:39.239Z,11.83
2019-05-21T19:01:09.034Z,13.10
2019-05-21T19:03:38.401Z,13.10
2019-05-21T19:06:07.757Z,14.27
2019-05-21T19:08:37.207Z,11.80
2019-05-21T19:11:06.568Z,14.37
2019-05-21T19:13:35.943Z,14.63
2019-05-21T19:16:05.380Z,17.53
2019-05-21T19:18:34.816Z,13.70
2019-05-21T19:21:05.308Z,13.13
2019-05-21T19:23:34.685Z,15.97
2019-05-21T19:26:04.232Z,13.60
2019-05-21T19:28:33.593Z,15.07
2019-05-21T19:31:03.029Z,14.60
2019-05-21T19:33:32.398Z,16.27
2019-05-21T19:36:01.782Z,15.27
2019-05-21T19:38:31.153Z,16.60
2019-05-21T19:41:00.527Z,14.20
2019-05-21T19:43:29.904Z,14.67
2019-05-21T19:45:59.271Z,14.37
2019-05-21T19:48:29.713Z,13.70
2019-05-21T19:51:00.438Z,12.63
2019-05-21T19:53:31.158Z,12.23
2019-05-21T19:56:01.759Z,13.70
2019-05-21T19:58:31.139Z,12.83
2019-05-21T20:01:01.508Z,12.40
2019-05-21T20:03:31.323Z,13.03
2019-05-21T20:06:02.258Z,12.83
2019-05-21T20:08:31.744Z,12.63
2019-05-21T20:11:01.062Z,12.27
2019-05-21T20:13:32.879Z,13.17
2019-05-21T20:16:02.917Z,13.30
2019-05-21T20:18:32.593Z,12.40
2019-05-21T20:21:04.061Z,13.10
2019-05-21T20:23:33.438Z,13.07
2019-05-21T20:26:04.874Z,12.77
2019-05-21T20:28:34.377Z,15.00
2019-05-21T20:31:03.738Z,12.60
2019-05-21T20:33:35.131Z,14.07
2019-05-21T20:36:06.482Z,14.27
2019-05-21T20:38:36.800Z,15.13
2019-05-21T20:41:06.530Z,14.70
2019-05-21T20:43:36.082Z,15.57
2019-05-21T20:46:06.342Z,15.00
2019-05-21T20:48:35.745Z,16.40
2019-05-21T20:51:07.439Z,15.20
2019-05-21T20:53:36.811Z,14.60
2019-05-21T20:56:07.864Z,14.70
2019-05-21T20:58:37.498Z,16.57
2019-05-21T21:01:06.860Z,15.13
2019-05-21T21:03:36.602Z,15.77
2019-05-21T21:06:06.307Z,14.07
2019-05-21T21:08:36.548Z,13.23
2019-05-21T21:11:07.538Z,14.57
2019-05-21T21:13:37.625Z,14.63
2019-05-21T21:16:07.030Z,14.60
2019-05-21T21:18:36.387Z,13.27
2019-05-21T21:21:05.837Z,14.10
2019-05-21T21:23:37.104Z,12.70
2019-05-21T21:26:06.738Z,12.00
2019-05-21T21:28:36.171Z,14.17
2019-05-21T21:31:05.912Z,12.97
2019-05-21T21:33:35.295Z,13.63
2019-05-21T21:36:04.802Z,12.33
2019-05-21T21:38:36.519Z,11.53
2019-05-21T21:41:06.601Z,12.53
2019-05-21T21:43:36.575Z,12.13
2019-05-21T21:46:06.051Z,13.30
2019-05-21T21:48:36.070Z,12.73
2019-05-21T21:51:06.171Z,12.07
2019-05-21T21:53:36.548Z,15.10
2019-05-21T21:56:05.901Z,13.60
2019-05-21T21:58:35.307Z,16.67
2019-05-21T22:01:27.227Z,15.03
2019-05-21T22:03:59.677Z,15.00
2019-05-21T22:06:31.620Z,14.80
2019-05-21T22:09:01.916Z,15.70
2019-05-21T22:11:33.598Z,14.80
2019-05-21T22:14:04.575Z,15.47
2019-05-21T22:16:34.821Z,16.83
2019-05-21T22:19:04.525Z,15.40
2019-05-21T22:21:34.137Z,15.70
2019-05-21T22:24:03.515Z,15.90
2019-05-21T22:26:33.622Z,17.37
2019-05-21T22:29:03.055Z,17.67
2019-05-21T22:31:32.469Z,16.30
2019-05-21T22:34:01.925Z,16.47
2019-05-21T22:36:31.387Z,19.07
2019-05-21T22:39:00.779Z,16.67
2019-05-21T22:41:30.932Z,18.77
2019-05-21T22:44:00.401Z,17.83
2019-05-21T22:46:29.839Z,17.83
2019-05-21T22:48:59.226Z,17.77
2019-05-21T22:51:28.637Z,17.00
2019-05-21T22:53:58.053Z,17.27
2019-05-21T22:56:27.433Z,17.40
2019-05-21T22:58:56.888Z,18.20
2019-05-21T23:01:27.995Z,19.23
2019-05-21T23:03:57.391Z,19.70
2019-05-21T23:06:26.845Z,18.03
2019-05-21T23:08:56.556Z,18.23
2019-05-21T23:11:25.945Z,18.07
2019-05-21T23:13:55.306Z,18.43
2019-05-21T23:16:24.957Z,18.20
2019-05-21T23:18:58.846Z,21.67
2019-05-21T23:21:36.168Z,19.87
2019-05-21T23:24:09.752Z,20.63
2019-05-21T23:26:39.479Z,19.73
2019-05-21T23:29:08.922Z,20.20
2019-05-21T23:31:38.454Z,21.03
2019-05-21T23:34:08.942Z,24.23
2019-05-21T23:36:40.085Z,21.57
2019-05-21T23:39:12.060Z,22.20
2019-05-21T23:41:44.237Z,21.97
2019-05-21T23:44:14.101Z,19.63
2019-05-21T23:46:44.223Z,22.57
2019-05-21T23:49:13.613Z,19.60
2019-05-21T23:51:43.239Z,21.80
2019-05-21T23:54:12.874Z,20.97
2019-05-21T23:56:42.297Z,22.10
2019-05-21T23:59:11.924Z,22.90
